Home > Products > Valid Products > MTR

000
SAUS45 KREV 190759
MTRDRA
METAR KDRA 190752Z AUTO 00000KT 10SM CLR 02/01 A3022 RMK AO2 SLP226
T00220006 401170017 $





000
SAUS45 KREV 190357
MTRDRA
METAR KDRA 190352Z AUTO 00000KT 10SM CLR 04/02 A3020 RMK AO2 SLP224
T00390022





000
SAUS45 KREV 190357
MTRDRA
METAR KDRA 190352Z AUTO 00000KT 10SM CLR 04/02 A3020 RMK AO2 SLP224
T00390022





000
SAUS45 KREV 190157
MTRDRA
METAR KDRA 190152Z AUTO 00000KT 10SM CLR 07/03 A3018 RMK AO2 SLP214
T00670033





000
SAUS45 KREV 190157
MTRDRA
METAR KDRA 190152Z AUTO 00000KT 10SM CLR 07/03 A3018 RMK AO2 SLP214
T00670033





000
SAUS45 KREV 182357
MTRDRA
METAR KDRA 182352Z AUTO 21005KT 10SM CLR 10/03 A3016 RMK AO2 SLP200
T01000028 10117 20078 53006





000
SAUS45 KREV 182259
MTRDRA
METAR KDRA 182252Z AUTO 20007KT 10SM SCT027 BKN032 OVC041 10/03
A3015 RMK AO2 SLP197 T01000033





000
SAUS45 KREV 182104
MTRDRA
SPECI KDRA 182102Z AUTO 24007KT 10SM SCT026 BKN033 OVC050 09/03
A3013 RMK AO2 T00940033





000
SAUS45 KREV 181958
MTRDRA
METAR KDRA 181952Z AUTO 23005KT 10SM BKN022 BKN028 OVC034 10/04
A3016 RMK AO2 SLP200 T01000039





000
SAUS45 KREV 181938
MTRDRA
SPECI KDRA 181936Z AUTO VRB06KT 10SM SCT021 BKN029 OVC034 10/04
A3016 RMK AO2 T01000044





000
SAUS45 KREV 181930
MTRDRA
SPECI KDRA 181924Z AUTO VRB03KT 10SM FEW023 SCT029 OVC036 09/04
A3017 RMK AO2 T00940044





000
SAUS45 KREV 181257
MTRDRA
METAR KDRA 181252Z AUTO 02004KT 10SM FEW020 BKN050 05/04 A3009 RMK
AO2 SLP181 T00500039 $





000
SAUS45 KREV 181257
MTRDRA
METAR KDRA 181252Z AUTO 02004KT 10SM FEW020 BKN050 05/04 A3009 RMK
AO2 SLP181 T00500039 $





000
SAUS45 KREV 181157
MTRDRA
METAR KDRA 181152Z AUTO 00000KT 10SM OVC047 06/04 A3009 RMK AO2
SLP180 70018 T00560044 10056 20044 51006 $





000
SAUS45 KREV 181157
MTRDRA
METAR KDRA 181152Z AUTO 00000KT 10SM OVC047 06/04 A3009 RMK AO2
SLP180 70018 T00560044 10056 20044 51006 $





000
SAUS45 KREV 181107
MTRDRA
SPECI KDRA 181102Z AUTO 00000KT 10SM FEW027 BKN032 OVC039 05/04
A3008 RMK AO2 T00500044 $





000
SAUS45 KREV 181107
MTRDRA
SPECI KDRA 181102Z AUTO 00000KT 10SM FEW027 BKN032 OVC039 05/04
A3008 RMK AO2 T00500044 $





000
SAUS45 KREV 181057
MTRDRA
METAR KDRA 181052Z AUTO 00000KT 10SM BKN028 OVC039 05/04 A3008 RMK
AO2 SLP179 T00500044 $





000
SAUS45 KREV 181057
MTRDRA
METAR KDRA 181052Z AUTO 00000KT 10SM BKN028 OVC039 05/04 A3008 RMK
AO2 SLP179 T00500044 $





000
SAUS45 KREV 181046
MTRDRA
SPECI KDRA 181041Z AUTO 00000KT 10SM BKN028 OVC040 05/04 A3008 RMK
AO2 T00500039 $





000
SAUS45 KREV 181046
MTRDRA
SPECI KDRA 181041Z AUTO 00000KT 10SM BKN028 OVC040 05/04 A3008 RMK
AO2 T00500039 $





000
SAUS45 KREV 181039
MTRDRA
SPECI KDRA 181034Z AUTO 00000KT 9SM SCT028 OVC040 05/04 A3008 RMK
AO2 T00500039 $





000
SAUS45 KREV 180957
MTRDRA
METAR KDRA 180952Z AUTO 00000KT 10SM FEW019 BKN028 OVC038 05/04
A3008 RMK AO2 SLP178 T00500044 $





000
SAUS45 KREV 180940
MTRDRA
SPECI KDRA 180935Z AUTO 00000KT 10SM BKN027 OVC038 04/04 A3008 RMK
AO2 T00440039 $





000
SAUS45 KREV 180907
MTRDRA
SPECI KDRA 180902Z AUTO 00000KT 10SM SCT027 BKN039 05/04 A3007 RMK
AO2 T00500039 $





000
SAUS45 KREV 180907
MTRDRA
SPECI KDRA 180902Z AUTO 00000KT 10SM SCT027 BKN039 05/04 A3007 RMK
AO2 T00500039 $





000
SAUS45 KREV 180857
MTRDRA
METAR KDRA 180852Z AUTO 36004KT 10SM FEW017 BKN028 05/04 A3007 RMK
AO2 SLP175 T00500044 58003 $





000
SAUS45 KREV 180857
MTRDRA
METAR KDRA 180852Z AUTO 36004KT 10SM FEW017 BKN028 05/04 A3007 RMK
AO2 SLP175 T00500044 58003 $





000
SAUS45 KREV 180815
MTRDRA
SPECI KDRA 180810Z AUTO 04003KT 10SM BKN023 05/04 A3007 RMK AO2
T00500039 $





000
SAUS45 KREV 180815
MTRDRA
SPECI KDRA 180810Z AUTO 04003KT 10SM BKN023 05/04 A3007 RMK AO2
T00500039 $





000
SAUS45 KREV 180757
MTRDRA
METAR KDRA 180752Z AUTO 05003KT 10SM FEW025 BKN065 05/04 A3007 RMK
AO2 SLP175 T00500044 400720050 $





000
SAUS45 KREV 180757
MTRDRA
METAR KDRA 180752Z AUTO 05003KT 10SM FEW025 BKN065 05/04 A3007 RMK
AO2 SLP175 T00500044 400720050 $





000
SAUS45 KREV 180657
MTRDRA
METAR KDRA 180652Z AUTO 00000KT 10SM FEW027 SCT045 OVC060 06/04
A3009 RMK AO2 SLP180 T00560044 $





000
SAUS45 KREV 180652
MTRDRA
SPECI KDRA 180647Z AUTO 00000KT 10SM FEW021 SCT027 OVC060 06/04
A3009 RMK AO2 T00560044 $





000
SAUS45 KREV 180622
MTRDRA
SPECI KDRA 180617Z AUTO 00000KT 10SM BKN022 BKN028 OVC060 06/05
A3008 RMK AO2 T00560050 $





000
SAUS45 KREV 180616
MTRDRA
SPECI KDRA 180611Z AUTO 00000KT 10SM SCT022 BKN030 OVC060 06/05
A3008 RMK AO2 T00560050 $





000
SAUS45 KREV 180552
MTRDRA
METAR KDRA 180552Z AUTO 00000KT 10SM BKN022 OVC085 06/04 A3008 RMK
AO2 SLP177 T00560044 10072 20056 53008 $





000
SAUS45 KREV 180526
MTRDRA
SPECI KDRA 180521Z AUTO 15003KT 10SM SCT025 OVC090 06/04 A3007 RMK
AO2 T00610044 $





000
SAUS45 KREV 180457
MTRDRA
SPECI KDRA 180456Z AUTO 00000KT 10SM BKN026 BKN039 OVC047 07/05
A3007 RMK AO2 T00670050 $





000
SAUS45 KREV 180358
MTRDRA
METAR KDRA 180352Z AUTO 31003KT 10SM OVC070 06/04 A3006 RMK AO2
SLP172 T00610044 $





000
SAUS45 KREV 180358
MTRDRA
METAR KDRA 180352Z AUTO 31003KT 10SM OVC070 06/04 A3006 RMK AO2
SLP172 T00610044 $





000
SAUS45 KREV 180256
MTRDRA
METAR KDRA 180252Z AUTO 00000KT 10SM BKN045 OVC060 07/05 A3006 RMK
AO2 SLP169 T00670050 53013 $





000
SAUS45 KREV 180212
MTRDRA
SPECI KDRA 180207Z AUTO 00000KT 10SM SCT014 SCT026 OVC035 07/04
A3005 RMK AO2 T00720044 $





000
SAUS45 KREV 180204
MTRDRA
SPECI KDRA 180158Z AUTO 00000KT 10SM SCT014 BKN026 OVC035 07/04
A3004 RMK AO2 T00720044 $





000
SAUS45 KREV 180157
MTRDRA
METAR KDRA 180152Z AUTO 00000KT 10SM SCT014 OVC033 07/04 A3004 RMK
AO2 SLP163 T00720044 $





000
SAUS45 KREV 180157
MTRDRA
METAR KDRA 180152Z AUTO 00000KT 10SM SCT014 OVC033 07/04 A3004 RMK
AO2 SLP163 T00720044 $





000
SAUS45 KREV 180120
MTRDRA
SPECI KDRA 180115Z AUTO 00000KT 10SM FEW013 SCT022 OVC033 07/04
A3003 RMK AO2 T00720039 $





000
SAUS45 KREV 180120
MTRDRA
SPECI KDRA 180115Z AUTO 00000KT 10SM FEW013 SCT022 OVC033 07/04
A3003 RMK AO2 T00720039 $





000
SAUS45 KREV 180113
MTRDRA
SPECI KDRA 180108Z AUTO 00000KT 10SM SCT014 BKN020 OVC033 07/04
A3003 RMK AO2 T00720044 $





000
SAUS45 KREV 180102
MTRDRA
SPECI KDRA 180057Z AUTO 00000KT 10SM FEW014 SCT020 OVC035 07/04
A3003 RMK AO2 T00720044 $





000
SAUS45 KREV 180057
MTRDRA
METAR KDRA 180052Z AUTO 35003KT 10SM FEW014 BKN025 OVC035 07/04
A3003 RMK AO2 SLP159 T00720044 $





000
SAUS45 KREV 180047
MTRDRA
SPECI KDRA 180042Z AUTO 34003KT 10SM FEW015 BKN026 OVC034 07/04
A3002 RMK AO2 T00720044 $





000
SAUS45 KREV 172357
MTRDRA
METAR KDRA 172352Z AUTO 27005KT 10SM FEW015 BKN036 OVC075 07/04
A3001 RMK AO2 SLP154 60002 T00720044 10072 20061 53003 $





000
SAUS45 KREV 172323
MTRDRA
SPECI KDRA 172318Z AUTO 32003KT 10SM SCT028 BKN040 OVC080 07/04
A3001 RMK AO2 T00720044 $





000
SAUS45 KREV 172257
MTRDRA
METAR KDRA 172252Z AUTO 33004KT 10SM BKN022 OVC030 07/04 A3000 RMK
AO2 SLP151 T00670039 $





000
SAUS45 KREV 172157
MTRDRA
METAR KDRA 172152Z AUTO 00000KT 10SM BKN022 OVC027 06/04 A3000 RMK
AO2 RAE2055 SLP151 P0000 T00610039 $





000
SAUS45 KREV 172157
MTRDRA
METAR KDRA 172152Z AUTO 00000KT 10SM BKN022 OVC027 06/04 A3000 RMK
AO2 RAE2055 SLP151 P0000 T00610039 $





000
SAUS45 KREV 172057
MTRDRA
METAR KDRA 172052Z AUTO 00000KT 8SM -RA OVC021 06/04 A3000 RMK AO2
RAE23B44 SLP150 P0000 60002 T00610039 56010





000
SAUS45 KREV 171957
MTRDRA
METAR KDRA 171952Z AUTO 10003KT 10SM -RA FEW014 BKN023 OVC033 07/04
A3001 RMK AO2 RAB1858E10B43 SLP152 P0000 T00670039 $





000
SAUS45 KREV 171934
MTRDRA
SPECI KDRA 171929Z AUTO 13004KT 10SM SCT023 OVC031 07/04 A3002 RMK
AO2 RAB1858E10 P0000 T00670039 $





000
SAUS45 KREV 171858
MTRDRA
METAR KDRA 171852Z AUTO 12007KT 9SM BKN023 OVC029 07/04 A3003 RMK
AO2 RAE28 SLP158 P0002 T00670039 $





000
SAUS45 KREV 171805
MTRDRA
SPECI KDRA 171800Z AUTO 00000KT 10SM -RA BKN026 OVC031 06/03 A3004
RMK AO2 P0001 T00610033 $





000
SAUS45 KREV 171757
MTRDRA
METAR KDRA 171752Z AUTO 00000KT 8SM -RA OVC030 06/04 A3004 RMK AO2
RAB1657 SLP162 P0001 60016 T00610039 10061 20050 51019 $





000
SAUS45 KREV 171657
MTRDRA
METAR KDRA 171652Z AUTO 03003KT 8SM OVC032 06/04 A3002 RMK AO2 RAE50
SLP154 P0006 T00560044 $





000
SAUS45 KREV 171638
MTRDRA
SPECI KDRA 171633Z AUTO 36003KT 5SM -RA BR OVC030 05/04 A3001 RMK
AO2 P0005 T00500039 $





000
SAUS45 KREV 171557
MTRDRA
METAR KDRA 171552Z AUTO 00000KT 3SM -RA BR BKN029 OVC036 05/04 A3000
RMK AO2 RAB32 SLP148 P0001 T00500039





000
SAUS45 KREV 171512
MTRDRA
SPECI KDRA 171506Z AUTO 11005KT 9SM OVC028 05/03 A2998 RMK AO2
T00500033 $





000
SAUS45 KREV 171457
MTRDRA
METAR KDRA 171452Z AUTO 11004KT 9SM OVC030 05/03 A2997 RMK AO2
RAE05B36E47 SLP140 P0001 60008 T00500033 53006 $





000
SAUS45 KREV 171359
MTRDRA
SLP136 P0005 T00500033 $





000
SAUS45 KREV 171359
MTRDRA
METAR KDRA 171352Z AUTO 08003KT 7SM -RA OVC038 05/03 A2996 RMK AO2
SLP136 P0005 T00500033 $





000
SAUS45 KREV 171337
MTRDRA
SPECI KDRA 171332Z AUTO 10004KT 6SM -RA BR BKN030 OVC040 05/03 A2996
RMK AO2 P0004 T00500033 $





000
SAUS45 KREV 171256
MTRDRA
METAR KDRA 171252Z AUTO 12006KT 10SM -RA OVC027 05/03 A2996 RMK AO2
RAB04 SLP134 P0002 T00500033 $





000
SAUS45 KREV 171157
MTRDRA
METAR KDRA 171152Z AUTO 12008KT 10SM OVC031 05/02 A2995 RMK AO2
SLP129 60000 T00500022 10067 20050 58004 $





000
SAUS45 KREV 171057
MTRDRA
METAR KDRA 171052Z AUTO 12008KT 10SM BKN038 06/03 A2995 RMK AO2
SLP128 T00560028 $





000
SAUS45 KREV 170957
MTRDRA
METAR KDRA 170952Z AUTO 12009KT 10SM SCT031 OVC039 06/02 A2996 RMK
AO2 RAB0859E32 SLP132 P0000 T00610022 $





000
SAUS45 KREV 170858
MTRDRA
METAR KDRA 170852Z AUTO 11008KT 10SM BKN041 OVC055 07/02 A2996 RMK
AO2 SLP132 T00670022 56008 $





000
SAUS45 KREV 170858
MTRDRA
METAR KDRA 170852Z AUTO 11008KT 10SM BKN041 OVC055 07/02 A2996 RMK
AO2 SLP132 T00670022 56008 $





000
SAUS45 KREV 170757
MTRDRA
METAR KDRA 170752Z AUTO 11008KT 10SM OVC041 07/02 A2997 RMK AO2
SLP134 T00670022 401110022 $





000
SAUS45 KREV 170757
MTRDRA
METAR KDRA 170752Z AUTO 11008KT 10SM OVC041 07/02 A2997 RMK AO2
SLP134 T00670022 401110022 $





000
SAUS45 KREV 170657
MTRDRA
METAR KDRA 170652Z AUTO 10007KT 10SM BKN041 OVC055 07/03 A2998 RMK
AO2 SLP138 T00670028 $





000
SAUS45 KREV 170557
MTRDRA
METAR KDRA 170552Z AUTO 06003KT 10SM OVC037 07/03 A2999 RMK AO2
SLP142 60000 T00670033 10094 20067 51002 $





000
SAUS45 KREV 170457
MTRDRA
METAR KDRA 170452Z AUTO 06005KT 10SM SCT040 OVC048 07/03 A2998 RMK
AO2 RAB03E30 SLP142 P0000 T00720033 $





000
SAUS45 KREV 170457
MTRDRA
METAR KDRA 170452Z AUTO 06005KT 10SM SCT040 OVC048 07/03 A2998 RMK
AO2 RAB03E30 SLP142 P0000 T00720033 $





000
SAUS45 KREV 170358
MTRDRA
METAR KDRA 170352Z AUTO 00000KT 10SM OVC036 08/01 A2999 RMK AO2
SLP145 T00830011 $





000
SAUS45 KREV 170358
MTRDRA
METAR KDRA 170352Z AUTO 00000KT 10SM OVC036 08/01 A2999 RMK AO2
SLP145 T00830011 $





000
SAUS45 KREV 170257
MTRDRA
METAR KDRA 170252Z AUTO 00000KT 10SM OVC039 08/03 A2998 RMK AO2
SLP145 T00780033 53005 $





000
SAUS45 KREV 170157
MTRDRA
METAR KDRA 170152Z AUTO 00000KT 10SM BKN044 OVC060 08/01 A2997 RMK
AO2 SLP140 T00830006 $





000
SAUS45 KREV 170057
MTRDRA
METAR KDRA 170052Z AUTO 19003KT 10SM CLR 08/01 A2996 RMK AO2 SLP137
T00830006 $





000
SAUS45 KREV 162357
MTRDRA
METAR KDRA 162352Z AUTO 22003KT 10SM CLR 09/M01 A2997 RMK AO2 SLP136
T00941006 10111 20078 55004





000
SAUS45 KREV 162257
MTRDRA
METAR KDRA 162252Z AUTO 00000KT 10SM CLR 11/M02 A2996 RMK AO2 SLP134
T01061022 $





000
SAUS45 KREV 162157
MTRDRA
METAR KDRA 162152Z AUTO 00000KT 10SM CLR 11/M03 A2996 RMK AO2 SLP132
T01061028 $





000
SAUS45 KREV 162057
MTRDRA
METAR KDRA 162052Z AUTO 27004KT 10SM FEW055 10/M03 A2998 RMK AO2
SLP140 T01001028 58018 $





000
SAUS45 KREV 161957
MTRDRA
METAR KDRA 161952Z AUTO 04003KT 10SM CLR 11/M03 A3000 RMK AO2 SLP146
T01061028 $





000
SAUS45 KREV 161857
MTRDRA
METAR KDRA 161852Z AUTO 14004KT 10SM FEW060 09/M03 A3003 RMK AO2
SLP158 T00891028





000
SAUS45 KREV 161757
MTRDRA
METAR KDRA 161752Z AUTO 14005KT 10SM OVC060 08/M03 A3004 RMK AO2
SLP162 T00831028 10083 20022 53012





000
SAUS45 KREV 161657
MTRDRA
METAR KDRA 161652Z AUTO 00000KT 10SM FEW060 07/M03 A3002 RMK AO2
SLP157 T00671028





000
SAUS45 KREV 161557
MTRDRA
METAR KDRA 161552Z AUTO 04004KT 10SM CLR 04/M02 A3001 RMK AO2 SLP153
T00391017 $





000
SAUS45 KREV 161557
MTRDRA
METAR KDRA 161552Z AUTO 04004KT 10SM CLR 04/M02 A3001 RMK AO2 SLP153
T00391017 $





000
SAUS45 KREV 161458
MTRDRA
METAR KDRA 161452Z AUTO 33003KT 10SM FEW050 03/M02 A3000 RMK AO2
SLP155 T00281017 53005 $





000
SAUS45 KREV 161257
MTRDRA
METAR KDRA 161252Z AUTO 04007KT 10SM BKN065 04/M02 A2998 RMK AO2
SLP145 T00391017 $





000
SAUS45 KREV 161157
MTRDRA
METAR KDRA 161152Z AUTO 13005KT 10SM OVC070 04/M02 A2998 RMK AO2
SLP142 T00441022 10056 20022 58013 $





    US Dept of Commerce
    National Oceanic and Atmospheric Administration
    National Weather Service
    1325 East West Highway
    Silver Spring, MD 20910
    Page Author: NWS Internet Services Team
Disclaimer
Information Quality
Credits
Glossary
Privacy Policy
Freedom of Information Act (FOIA)
About Us
Career Opportunities